sensor_id;sensor_type;location;lat;lon;timestamp;pressure;altitude;pressure_sealevel;temperature
29701;BMP280;57917;51.380;-0.176;2023-11-21T00:02:42;101088.78;;;11.71
29701;BMP280;57917;51.380;-0.176;2023-11-21T00:08:29;101094.34;;;11.74
29701;BMP280;57917;51.380;-0.176;2023-11-21T00:14:32;101100.19;;;11.66
29701;BMP280;57917;51.380;-0.176;2023-11-21T00:20:20;101117.16;;;11.65
29701;BMP280;57917;51.380;-0.176;2023-11-21T00:26:08;101117.75;;;11.57
29701;BMP280;57917;51.380;-0.176;2023-11-21T00:31:58;101128.03;;;11.59
29701;BMP280;57917;51.380;-0.176;2023-11-21T00:37:48;101129.16;;;11.48
29701;BMP280;57917;51.380;-0.176;2023-11-21T00:43:38;101138.94;;;11.52
29701;BMP280;57917;51.380;-0.176;2023-11-21T00:49:25;101157.75;;;11.51
29701;BMP280;57917;51.380;-0.176;2023-11-21T00:55:12;101164.41;;;11.48
29701;BMP280;57917;51.380;-0.176;2023-11-21T01:01:00;101168.13;;;11.47
29701;BMP280;57917;51.380;-0.176;2023-11-21T01:07:01;101180.34;;;11.18
29701;BMP280;57917;51.380;-0.176;2023-11-21T01:12:49;101184.03;;;11.17
29701;BMP280;57917;51.380;-0.176;2023-11-21T01:18:36;101186.97;;;11.25
29701;BMP280;57917;51.380;-0.176;2023-11-21T01:24:23;101197.84;;;11.39
29701;BMP280;57917;51.380;-0.176;2023-11-21T01:30:18;101198.09;;;11.32
29701;BMP280;57917;51.380;-0.176;2023-11-21T01:36:06;101221.94;;;11.17
29701;BMP280;57917;51.380;-0.176;2023-11-21T01:42:00;101228.03;;;11.38
29701;BMP280;57917;51.380;-0.176;2023-11-21T01:47:48;101240.22;;;11.14
29701;BMP280;57917;51.380;-0.176;2023-11-21T01:53:35;101242.88;;;11.24
29701;BMP280;57917;51.380;-0.176;2023-11-21T01:59:24;101249.50;;;11.16
29701;BMP280;57917;51.380;-0.176;2023-11-21T02:05:18;101254.56;;;11.18
29701;BMP280;57917;51.380;-0.176;2023-11-21T02:11:05;101266.72;;;11.29
29701;BMP280;57917;51.380;-0.176;2023-11-21T02:16:54;101272.34;;;11.48
29701;BMP280;57917;51.380;-0.176;2023-11-21T02:22:43;101276.03;;;11.52
29701;BMP280;57917;51.380;-0.176;2023-11-21T02:28:32;101270.97;;;11.65
29701;BMP280;57917;51.380;-0.176;2023-11-21T02:34:23;101277.63;;;11.68
29701;BMP280;57917;51.380;-0.176;2023-11-21T02:40:12;101289.56;;;11.70
29701;BMP280;57917;51.380;-0.176;2023-11-21T02:45:59;101301.16;;;11.09
29701;BMP280;57917;51.380;-0.176;2023-11-21T02:51:46;101316.00;;;11.10
29701;BMP280;57917;51.380;-0.176;2023-11-21T02:57:33;101322.63;;;11.07
29701;BMP280;57917;51.380;-0.176;2023-11-21T03:03:20;101326.06;;;11.13
29701;BMP280;57917;51.380;-0.176;2023-11-21T03:09:07;101345.09;;;10.95
29701;BMP280;57917;51.380;-0.176;2023-11-21T03:14:54;101343.56;;;11.04
29701;BMP280;57917;51.380;-0.176;2023-11-21T03:20:43;101348.88;;;11.19
29701;BMP280;57917;51.380;-0.176;2023-11-21T03:26:36;101349.13;;;11.12
29701;BMP280;57917;51.380;-0.176;2023-11-21T03:32:24;101348.84;;;11.09
29701;BMP280;57917;51.380;-0.176;2023-11-21T03:38:12;101357.25;;;10.91
29701;BMP280;57917;51.380;-0.176;2023-11-21T03:43:59;101364.63;;;10.84
29701;BMP280;57917;51.380;-0.176;2023-11-21T03:49:46;101371.59;;;10.95
29701;BMP280;57917;51.380;-0.176;2023-11-21T03:55:35;101373.69;;;10.93
29701;BMP280;57917;51.380;-0.176;2023-11-21T04:01:23;101386.91;;;10.88
29701;BMP280;57917;51.380;-0.176;2023-11-21T04:07:11;101393.91;;;11.09
29701;BMP280;57917;51.380;-0.176;2023-11-21T04:13:00;101393.59;;;11.05
29701;BMP280;57917;51.380;-0.176;2023-11-21T04:18:47;101409.94;;;10.82
29701;BMP280;57917;51.380;-0.176;2023-11-21T04:24:36;101418.06;;;10.71
29701;BMP280;57917;51.380;-0.176;2023-11-21T04:30:23;101418.31;;;10.64
29701;BMP280;57917;51.380;-0.176;2023-11-21T04:36:11;101437.28;;;10.51
29701;BMP280;57917;51.380;-0.176;2023-11-21T04:41:58;101437.53;;;10.50
29701;BMP280;57917;51.380;-0.176;2023-11-21T04:47:46;101442.47;;;10.73
29701;BMP280;57917;51.380;-0.176;2023-11-21T04:53:33;101454.53;;;10.54
29701;BMP280;57917;51.380;-0.176;2023-11-21T04:59:21;101468.31;;;10.56
29701;BMP280;57917;51.380;-0.176;2023-11-21T05:05:15;101470.03;;;10.40
29701;BMP280;57917;51.380;-0.176;2023-11-21T05:11:03;101471.09;;;10.44
29701;BMP280;57917;51.380;-0.176;2023-11-21T05:16:50;101470.31;;;10.44
29701;BMP280;57917;51.380;-0.176;2023-11-21T05:22:38;101472.19;;;10.48
29701;BMP280;57917;51.380;-0.176;2023-11-21T05:28:25;101479.38;;;10.53
29701;BMP280;57917;51.380;-0.176;2023-11-21T05:34:12;101485.63;;;10.42
29701;BMP280;57917;51.380;-0.176;2023-11-21T05:40:10;101487.19;;;10.38
29701;BMP280;57917;51.380;-0.176;2023-11-21T05:46:01;101494.91;;;10.39
29701;BMP280;57917;51.380;-0.176;2023-11-21T05:51:50;101505.63;;;10.28
29701;BMP280;57917;51.380;-0.176;2023-11-21T05:57:42;101524.69;;;10.25
29701;BMP280;57917;51.380;-0.176;2023-11-21T06:03:32;101529.44;;;10.28
29701;BMP280;57917;51.380;-0.176;2023-11-21T06:09:23;101534.63;;;10.18
29701;BMP280;57917;51.380;-0.176;2023-11-21T06:15:14;101559.00;;;10.20
29701;BMP280;57917;51.380;-0.176;2023-11-21T06:21:01;101573.50;;;10.12
29701;BMP280;57917;51.380;-0.176;2023-11-21T06:26:52;101567.59;;;10.05
29701;BMP280;57917;51.380;-0.176;2023-11-21T06:32:43;101571.59;;;10.08
29701;BMP280;57917;51.380;-0.176;2023-11-21T06:38:54;101586.34;;;10.04
29701;BMP280;57917;51.380;-0.176;2023-11-21T06:44:43;101585.19;;;9.94
29701;BMP280;57917;51.380;-0.176;2023-11-21T06:50:31;101601.03;;;9.94
29701;BMP280;57917;51.380;-0.176;2023-11-21T06:56:20;101599.69;;;9.92
29701;BMP280;57917;51.380;-0.176;2023-11-21T07:02:15;101613.69;;;9.87
29701;BMP280;57917;51.380;-0.176;2023-11-21T07:08:08;101625.09;;;9.71
29701;BMP280;57917;51.380;-0.176;2023-11-21T07:13:58;101641.44;;;9.68
29701;BMP280;57917;51.380;-0.176;2023-11-21T07:19:55;101644.50;;;9.60
29701;BMP280;57917;51.380;-0.176;2023-11-21T07:25:51;101653.56;;;9.64
29701;BMP280;57917;51.380;-0.176;2023-11-21T07:31:51;101676.97;;;9.77
29701;BMP280;57917;51.380;-0.176;2023-11-21T07:37:48;101676.13;;;9.72
29701;BMP280;57917;51.380;-0.176;2023-11-21T07:43:40;101686.94;;;9.70
29701;BMP280;57917;51.380;-0.176;2023-11-21T07:49:34;101702.00;;;9.70
29701;BMP280;57917;51.380;-0.176;2023-11-21T07:55:43;101717.56;;;9.66
29701;BMP280;57917;51.380;-0.176;2023-11-21T08:01:31;101717.22;;;9.63
29701;BMP280;57917;51.380;-0.176;2023-11-21T08:07:35;101733.03;;;9.74
29701;BMP280;57917;51.380;-0.176;2023-11-21T08:13:46;101739.66;;;9.77
29701;BMP280;57917;51.380;-0.176;2023-11-21T08:19:36;101749.34;;;9.71
29701;BMP280;57917;51.380;-0.176;2023-11-21T08:25:29;101750.56;;;9.64
29701;BMP280;57917;51.380;-0.176;2023-11-21T08:31:17;101763.06;;;9.68
29701;BMP280;57917;51.380;-0.176;2023-11-21T08:37:31;101773.63;;;9.68
29701;BMP280;57917;51.380;-0.176;2023-11-21T08:43:22;101785.97;;;9.63
29701;BMP280;57917;51.380;-0.176;2023-11-21T08:49:15;101794.16;;;9.78
29701;BMP280;57917;51.380;-0.176;2023-11-21T08:55:03;101806.56;;;9.77
29701;BMP280;57917;51.380;-0.176;2023-11-21T09:00:55;101795.28;;;9.65
29701;BMP280;57917;51.380;-0.176;2023-11-21T09:06:42;101806.97;;;9.69
29701;BMP280;57917;51.380;-0.176;2023-11-21T09:12:37;101820.34;;;9.79
29701;BMP280;57917;51.380;-0.176;2023-11-21T09:18:25;101832.16;;;9.88
29701;BMP280;57917;51.380;-0.176;2023-11-21T09:24:12;101831.28;;;10.00
29701;BMP280;57917;51.380;-0.176;2023-11-21T09:29:58;101826.84;;;10.05
29701;BMP280;57917;51.380;-0.176;2023-11-21T09:35:46;101835.59;;;10.06
29701;BMP280;57917;51.380;-0.176;2023-11-21T09:41:44;101846.75;;;10.24
29701;BMP280;57917;51.380;-0.176;2023-11-21T09:47:38;101845.44;;;10.27
29701;BMP280;57917;51.380;-0.176;2023-11-21T09:53:33;101847.66;;;10.35
29701;BMP280;57917;51.380;-0.176;2023-11-21T09:59:22;101864.03;;;10.32
29701;BMP280;57917;51.380;-0.176;2023-11-21T10:05:10;101865.78;;;10.43
29701;BMP280;57917;51.380;-0.176;2023-11-21T10:10:59;101872.38;;;10.40
29701;BMP280;57917;51.380;-0.176;2023-11-21T10:16:53;101875.50;;;10.54
29701;BMP280;57917;51.380;-0.176;2023-11-21T10:22:41;101885.72;;;10.50
29701;BMP280;57917;51.380;-0.176;2023-11-21T10:28:28;101895.72;;;10.27
29701;BMP280;57917;51.380;-0.176;2023-11-21T10:34:20;101905.66;;;10.36
29701;BMP280;57917;51.380;-0.176;2023-11-21T10:40:13;101909.41;;;10.57
29701;BMP280;57917;51.380;-0.176;2023-11-21T10:46:00;101892.06;;;10.66
29701;BMP280;57917;51.380;-0.176;2023-11-21T10:51:47;101904.19;;;10.62
29701;BMP280;57917;51.380;-0.176;2023-11-21T10:57:42;101916.44;;;10.68
29701;BMP280;57917;51.380;-0.176;2023-11-21T11:03:38;101913.81;;;10.51
29701;BMP280;57917;51.380;-0.176;2023-11-21T11:09:26;101913.00;;;10.67
29701;BMP280;57917;51.380;-0.176;2023-11-21T11:15:16;101915.94;;;10.49
29701;BMP280;57917;51.380;-0.176;2023-11-21T11:27:30;101927.69;;;10.75
29701;BMP280;57917;51.380;-0.176;2023-11-21T11:39:32;101939.38;;;10.95
29701;BMP280;57917;51.380;-0.176;2023-11-21T11:45:21;101932.56;;;10.83
29701;BMP280;57917;51.380;-0.176;2023-11-21T11:51:14;101948.53;;;10.88
29701;BMP280;57917;51.380;-0.176;2023-11-21T11:57:09;101950.16;;;10.89
29701;BMP280;57917;51.380;-0.176;2023-11-21T12:03:01;101947.41;;;10.84
29701;BMP280;57917;51.380;-0.176;2023-11-21T12:08:53;101955.44;;;10.89
29701;BMP280;57917;51.380;-0.176;2023-11-21T12:14:40;101965.63;;;10.97
29701;BMP280;57917;51.380;-0.176;2023-11-21T12:20:40;101975.44;;;10.80
29701;BMP280;57917;51.380;-0.176;2023-11-21T12:26:33;101990.25;;;10.97
29701;BMP280;57917;51.380;-0.176;2023-11-21T12:32:20;102001.81;;;11.08
29701;BMP280;57917;51.380;-0.176;2023-11-21T12:38:08;102007.25;;;11.18
29701;BMP280;57917;51.380;-0.176;2023-11-21T12:43:58;102015.06;;;11.08
29701;BMP280;57917;51.380;-0.176;2023-11-21T12:49:45;102021.16;;;11.30
29701;BMP280;57917;51.380;-0.176;2023-11-21T12:55:33;102011.94;;;11.32
29701;BMP280;57917;51.380;-0.176;2023-11-21T13:01:25;102022.78;;;11.31
29701;BMP280;57917;51.380;-0.176;2023-11-21T13:07:22;102040.75;;;11.29
29701;BMP280;57917;51.380;-0.176;2023-11-21T13:13:11;102043.66;;;11.27
29701;BMP280;57917;51.380;-0.176;2023-11-21T13:19:10;102039.97;;;11.28
29701;BMP280;57917;51.380;-0.176;2023-11-21T13:24:58;102057.00;;;11.32
29701;BMP280;57917;51.380;-0.176;2023-11-21T13:30:45;102063.00;;;11.66
29701;BMP280;57917;51.380;-0.176;2023-11-21T13:36:33;102068.94;;;11.52
29701;BMP280;57917;51.380;-0.176;2023-11-21T13:42:23;102077.25;;;11.39
29701;BMP280;57917;51.380;-0.176;2023-11-21T13:48:13;102074.88;;;11.20
29701;BMP280;57917;51.380;-0.176;2023-11-21T13:54:09;102071.16;;;11.21
29701;BMP280;57917;51.380;-0.176;2023-11-21T13:59:58;102097.69;;;11.05
29701;BMP280;57917;51.380;-0.176;2023-11-21T14:05:46;102109.09;;;11.05
29701;BMP280;57917;51.380;-0.176;2023-11-21T14:11:34;102117.47;;;10.81
29701;BMP280;57917;51.380;-0.176;2023-11-21T14:17:33;102112.94;;;10.81
29701;BMP280;57917;51.380;-0.176;2023-11-21T14:23:23;102119.03;;;10.82
29701;BMP280;57917;51.380;-0.176;2023-11-21T14:29:14;102124.59;;;10.80
29701;BMP280;57917;51.380;-0.176;2023-11-21T14:35:04;102121.78;;;10.87
29701;BMP280;57917;51.380;-0.176;2023-11-21T14:40:51;102124.63;;;10.97
29701;BMP280;57917;51.380;-0.176;2023-11-21T14:46:38;102141.81;;;10.66
29701;BMP280;57917;51.380;-0.176;2023-11-21T14:52:32;102141.44;;;10.46
29701;BMP280;57917;51.380;-0.176;2023-11-21T14:58:24;102150.78;;;10.49
29701;BMP280;57917;51.380;-0.176;2023-11-21T15:04:14;102155.97;;;10.44
29701;BMP280;57917;51.380;-0.176;2023-11-21T15:10:19;102172.28;;;10.52
29701;BMP280;57917;51.380;-0.176;2023-11-21T15:16:15;102182.81;;;10.36
29701;BMP280;57917;51.380;-0.176;2023-11-21T15:22:02;102174.66;;;10.26
29701;BMP280;57917;51.380;-0.176;2023-11-21T15:27:49;102165.53;;;10.45
29701;BMP280;57917;51.380;-0.176;2023-11-21T15:33:36;102174.09;;;10.63
29701;BMP280;57917;51.380;-0.176;2023-11-21T15:39:26;102180.44;;;10.51
29701;BMP280;57917;51.380;-0.176;2023-11-21T15:45:16;102197.00;;;10.41
29701;BMP280;57917;51.380;-0.176;2023-11-21T15:51:09;102195.03;;;10.37
29701;BMP280;57917;51.380;-0.176;2023-11-21T15:56:59;102192.19;;;10.55
29701;BMP280;57917;51.380;-0.176;2023-11-21T16:02:54;102198.44;;;10.49
29701;BMP280;57917;51.380;-0.176;2023-11-21T16:08:45;102198.75;;;10.64
29701;BMP280;57917;51.380;-0.176;2023-11-21T16:15:05;102203.31;;;10.40
29701;BMP280;57917;51.380;-0.176;2023-11-21T16:20:56;102213.31;;;10.38
29701;BMP280;57917;51.380;-0.176;2023-11-21T16:26:45;102231.47;;;10.46
29701;BMP280;57917;51.380;-0.176;2023-11-21T16:32:32;102228.63;;;10.48
29701;BMP280;57917;51.380;-0.176;2023-11-21T16:38:22;102243.00;;;10.40
29701;BMP280;57917;51.380;-0.176;2023-11-21T16:44:17;102264.53;;;10.44
29701;BMP280;57917;51.380;-0.176;2023-11-21T16:50:08;102269.50;;;10.29
29701;BMP280;57917;51.380;-0.176;2023-11-21T16:55:58;102278.25;;;10.29
29701;BMP280;57917;51.380;-0.176;2023-11-21T17:01:54;102264.00;;;10.19
29701;BMP280;57917;51.380;-0.176;2023-11-21T17:07:52;102308.66;;;10.04
29701;BMP280;57917;51.380;-0.176;2023-11-21T17:13:41;102345.06;;;9.78
29701;BMP280;57917;51.380;-0.176;2023-11-21T17:19:41;102357.47;;;9.66
29701;BMP280;57917;51.380;-0.176;2023-11-21T17:25:32;102385.34;;;9.80
29701;BMP280;57917;51.380;-0.176;2023-11-21T17:31:19;102394.84;;;9.70
29701;BMP280;57917;51.380;-0.176;2023-11-21T17:37:09;102411.78;;;9.80
29701;BMP280;57917;51.380;-0.176;2023-11-21T17:42:57;102417.19;;;9.74
29701;BMP280;57917;51.380;-0.176;2023-11-21T17:48:48;102426.03;;;9.79
29701;BMP280;57917;51.380;-0.176;2023-11-21T17:54:38;102431.22;;;9.86
29701;BMP280;57917;51.380;-0.176;2023-11-21T18:00:29;102426.31;;;9.89
29701;BMP280;57917;51.380;-0.176;2023-11-21T18:06:26;102440.63;;;9.70
29701;BMP280;57917;51.380;-0.176;2023-11-21T18:12:17;102452.75;;;9.60
29701;BMP280;57917;51.380;-0.176;2023-11-21T18:18:06;102451.50;;;9.62
29701;BMP280;57917;51.380;-0.176;2023-11-21T18:23:56;102452.72;;;9.78
29701;BMP280;57917;51.380;-0.176;2023-11-21T18:29:46;102453.72;;;9.65
29701;BMP280;57917;51.380;-0.176;2023-11-21T18:35:35;102452.13;;;9.76
29701;BMP280;57917;51.380;-0.176;2023-11-21T18:41:25;102450.19;;;9.83
29701;BMP280;57917;51.380;-0.176;2023-11-21T18:47:17;102467.38;;;9.62
29701;BMP280;57917;51.380;-0.176;2023-11-21T18:53:15;102479.63;;;9.57
29701;BMP280;57917;51.380;-0.176;2023-11-21T18:59:13;102485.72;;;9.57
29701;BMP280;57917;51.380;-0.176;2023-11-21T19:05:02;102494.19;;;9.66
29701;BMP280;57917;51.380;-0.176;2023-11-21T19:10:52;102491.88;;;9.69
29701;BMP280;57917;51.380;-0.176;2023-11-21T19:16:40;102484.56;;;9.53
29701;BMP280;57917;51.380;-0.176;2023-11-21T19:22:35;102506.66;;;9.41
29701;BMP280;57917;51.380;-0.176;2023-11-21T19:28:33;102503.91;;;9.54
29701;BMP280;57917;51.380;-0.176;2023-11-21T19:34:20;102499.34;;;9.43
29701;BMP280;57917;51.380;-0.176;2023-11-21T19:40:11;102514.59;;;9.41
29701;BMP280;57917;51.380;-0.176;2023-11-21T19:46:01;102530.69;;;9.57
29701;BMP280;57917;51.380;-0.176;2023-11-21T19:51:49;102529.81;;;9.45
29701;BMP280;57917;51.380;-0.176;2023-11-21T19:57:36;102548.03;;;9.53
29701;BMP280;57917;51.380;-0.176;2023-11-21T20:03:24;102543.47;;;9.42
29701;BMP280;57917;51.380;-0.176;2023-11-21T20:09:11;102551.69;;;9.52
29701;BMP280;57917;51.380;-0.176;2023-11-21T20:15:03;102572.53;;;9.42
29701;BMP280;57917;51.380;-0.176;2023-11-21T20:20:51;102592.53;;;9.38
29701;BMP280;57917;51.380;-0.176;2023-11-21T20:26:38;102602.34;;;9.31
29701;BMP280;57917;51.380;-0.176;2023-11-21T20:32:29;102606.66;;;9.68
29701;BMP280;57917;51.380;-0.176;2023-11-21T20:38:16;102598.19;;;9.60
29701;BMP280;57917;51.380;-0.176;2023-11-21T20:44:06;102605.44;;;9.46
29701;BMP280;57917;51.380;-0.176;2023-11-21T20:49:56;102611.50;;;9.53
29701;BMP280;57917;51.380;-0.176;2023-11-21T20:55:50;102601.44;;;9.44
29701;BMP280;57917;51.380;-0.176;2023-11-21T21:01:40;102601.03;;;9.40
29701;BMP280;57917;51.380;-0.176;2023-11-21T21:07:28;102609.44;;;9.55
29701;BMP280;57917;51.380;-0.176;2023-11-21T21:13:15;102600.38;;;9.45
29701;BMP280;57917;51.380;-0.176;2023-11-21T21:19:05;102622.94;;;9.29
29701;BMP280;57917;51.380;-0.176;2023-11-21T21:25:01;102617.13;;;9.14
29701;BMP280;57917;51.380;-0.176;2023-11-21T21:30:49;102625.06;;;9.14
29701;BMP280;57917;51.380;-0.176;2023-11-21T21:36:37;102612.56;;;9.21
29701;BMP280;57917;51.380;-0.176;2023-11-21T21:42:26;102621.25;;;9.10
29701;BMP280;57917;51.380;-0.176;2023-11-21T21:48:15;102614.22;;;9.22
29701;BMP280;57917;51.380;-0.176;2023-11-21T21:54:02;102616.81;;;9.04
29701;BMP280;57917;51.380;-0.176;2023-11-21T21:59:57;102617.56;;;9.11
29701;BMP280;57917;51.380;-0.176;2023-11-21T22:06:01;102613.41;;;8.97
29701;BMP280;57917;51.380;-0.176;2023-11-21T22:11:49;102625.47;;;8.87
29701;BMP280;57917;51.380;-0.176;2023-11-21T22:17:42;102632.56;;;8.86
29701;BMP280;57917;51.380;-0.176;2023-11-21T22:23:30;102645.91;;;8.73
29701;BMP280;57917;51.380;-0.176;2023-11-21T22:29:19;102664.31;;;8.80
29701;BMP280;57917;51.380;-0.176;2023-11-21T22:42:01;102678.28;;;8.49
29701;BMP280;57917;51.380;-0.176;2023-11-21T22:48:46;102675.25;;;8.52
29701;BMP280;57917;51.380;-0.176;2023-11-21T22:54:38;102680.84;;;8.68
29701;BMP280;57917;51.380;-0.176;2023-11-21T23:00:30;102681.56;;;8.82
29701;BMP280;57917;51.380;-0.176;2023-11-21T23:06:28;102687.28;;;8.79
29701;BMP280;57917;51.380;-0.176;2023-11-21T23:12:36;102661.03;;;8.84
29701;BMP280;57917;51.380;-0.176;2023-11-21T23:18:30;102664.47;;;8.91
29701;BMP280;57917;51.380;-0.176;2023-11-21T23:24:17;102663.66;;;8.84
29701;BMP280;57917;51.380;-0.176;2023-11-21T23:30:13;102678.00;;;8.70
29701;BMP280;57917;51.380;-0.176;2023-11-21T23:36:00;102679.63;;;8.64
29701;BMP280;57917;51.380;-0.176;2023-11-21T23:41:47;102677.00;;;8.64
